createdAt,value
2022-12-17T00:02:35.402Z,13.52
2022-12-17T00:05:21.073Z,13.65
2022-12-17T00:08:06.719Z,14.65
2022-12-17T00:10:52.436Z,12.15
2022-12-17T00:13:39.999Z,14.02
2022-12-17T00:16:26.142Z,13.32
2022-12-17T00:19:11.722Z,11.77
2022-12-17T00:21:57.024Z,11.70
2022-12-17T00:24:42.710Z,12.27
2022-12-17T00:27:28.152Z,11.85
2022-12-17T00:30:13.673Z,11.88
2022-12-17T00:32:59.209Z,13.10
2022-12-17T00:35:44.581Z,11.43
2022-12-17T00:38:36.604Z,11.45
2022-12-17T00:41:22.020Z,11.43
2022-12-17T00:44:07.642Z,11.30
2022-12-17T00:46:53.175Z,11.48
2022-12-17T00:49:38.862Z,9.65
2022-12-17T00:52:24.272Z,10.63
2022-12-17T00:55:09.620Z,11.43
2022-12-17T00:57:55.239Z,10.95
2022-12-17T01:00:49.510Z,10.02
2022-12-17T01:03:35.074Z,11.60
2022-12-17T01:06:21.980Z,10.05
2022-12-17T01:09:07.561Z,10.45
2022-12-17T01:11:52.767Z,10.98
2022-12-17T01:14:43.581Z,10.88
2022-12-17T01:17:29.516Z,9.63
2022-12-17T01:20:15.247Z,9.27
2022-12-17T01:23:00.653Z,11.25
2022-12-17T01:25:45.995Z,10.90
2022-12-17T01:28:31.373Z,11.27
2022-12-17T01:31:17.105Z,10.25
2022-12-17T01:34:02.229Z,11.05
2022-12-17T01:36:47.517Z,10.57
2022-12-17T01:39:33.226Z,10.52
2022-12-17T01:42:18.685Z,10.80
2022-12-17T01:45:06.637Z,10.15
2022-12-17T01:48:04.972Z,10.45
2022-12-17T01:51:11.676Z,10.43
2022-12-17T01:54:10.211Z,8.25
2022-12-17T01:56:59.227Z,10.00
2022-12-17T02:00:08.969Z,9.15
2022-12-17T02:02:54.750Z,8.80
2022-12-17T02:05:45.155Z,10.20
2022-12-17T02:08:51.753Z,9.05
2022-12-17T02:12:05.195Z,10.43
2022-12-17T02:15:01.197Z,10.50
2022-12-17T02:17:59.449Z,10.25
2022-12-17T02:20:52.252Z,10.13
2022-12-17T02:23:48.377Z,16.17
2022-12-17T02:26:35.817Z,11.35
2022-12-17T02:29:22.592Z,10.25
2022-12-17T02:32:08.701Z,9.57
2022-12-17T02:35:04.726Z,8.93
2022-12-17T02:37:50.454Z,8.80
2022-12-17T02:40:38.260Z,9.13
2022-12-17T02:43:25.040Z,9.52
2022-12-17T02:46:10.504Z,8.40
2022-12-17T02:48:56.389Z,8.07
2022-12-17T02:51:42.064Z,11.50
2022-12-17T02:54:27.341Z,9.75
2022-12-17T02:57:13.209Z,8.50
2022-12-17T02:59:58.666Z,7.97
2022-12-17T03:02:44.346Z,8.25
2022-12-17T03:05:46.354Z,9.75
2022-12-17T03:08:32.079Z,7.85
2022-12-17T03:11:17.800Z,8.23
2022-12-17T03:14:03.357Z,8.75
2022-12-17T03:16:48.990Z,8.00
2022-12-17T03:19:34.471Z,8.52
2022-12-17T03:22:19.796Z,7.35
2022-12-17T03:25:05.114Z,8.50
2022-12-17T03:27:50.662Z,8.55
2022-12-17T03:30:37.824Z,8.38
2022-12-17T03:33:27.516Z,7.70
2022-12-17T03:36:13.855Z,8.32
2022-12-17T03:38:59.252Z,8.02
2022-12-17T03:41:44.930Z,8.63
2022-12-17T03:44:30.158Z,8.75
2022-12-17T03:47:15.555Z,8.07
2022-12-17T03:50:01.053Z,8.27
2022-12-17T03:52:46.719Z,8.13
2022-12-17T03:55:32.048Z,7.90
2022-12-17T03:58:17.325Z,8.75
2022-12-17T04:01:02.982Z,8.27
2022-12-17T04:03:48.368Z,8.18
2022-12-17T04:06:33.989Z,6.93
2022-12-17T04:09:19.603Z,6.68
2022-12-17T04:12:04.952Z,7.85
2022-12-17T04:14:50.458Z,7.85
2022-12-17T04:17:35.881Z,9.10
2022-12-17T04:20:21.577Z,9.25
2022-12-17T04:23:07.138Z,8.50
2022-12-17T04:25:52.607Z,7.95
2022-12-17T04:28:38.316Z,7.75
2022-12-17T04:31:23.638Z,8.95
2022-12-17T04:34:09.436Z,8.18
2022-12-17T04:36:54.913Z,7.78
2022-12-17T04:39:40.344Z,7.45
2022-12-17T04:42:25.830Z,7.88
2022-12-17T04:45:11.096Z,7.82
2022-12-17T04:47:56.422Z,7.18
2022-12-17T04:50:42.935Z,7.20
2022-12-17T04:53:29.159Z,8.20
2022-12-17T04:56:14.853Z,7.13
2022-12-17T04:59:00.275Z,6.10
2022-12-17T05:01:45.947Z,8.70
2022-12-17T05:04:31.390Z,7.53
2022-12-17T05:07:16.912Z,7.07
2022-12-17T05:10:02.500Z,7.18
2022-12-17T05:12:47.879Z,7.43
2022-12-17T05:15:33.210Z,8.25
2022-12-17T05:18:28.124Z,8.57
2022-12-17T05:21:13.735Z,8.02
2022-12-17T05:23:59.047Z,7.25
2022-12-17T05:26:47.876Z,7.45
2022-12-17T05:29:33.432Z,7.13
2022-12-17T05:32:18.684Z,6.78
2022-12-17T05:35:20.705Z,7.00
2022-12-17T05:38:06.140Z,7.30
2022-12-17T05:40:52.064Z,6.70
2022-12-17T05:43:38.000Z,5.65
2022-12-17T05:46:23.752Z,5.60
2022-12-17T05:49:09.255Z,6.75
2022-12-17T05:51:54.722Z,6.50
2022-12-17T05:54:40.323Z,6.95
2022-12-17T05:57:25.856Z,8.18
2022-12-17T06:00:11.358Z,8.57
2022-12-17T06:02:57.027Z,6.13
2022-12-17T06:05:42.807Z,6.53
2022-12-17T06:08:28.492Z,8.95
2022-12-17T06:11:24.956Z,6.75
2022-12-17T06:14:10.606Z,6.38
2022-12-17T06:16:55.958Z,6.90
2022-12-17T06:19:41.187Z,6.05
2022-12-17T06:22:43.404Z,4.78
2022-12-17T06:25:29.278Z,5.88
2022-12-17T06:28:18.798Z,4.78
2022-12-17T06:31:11.404Z,4.95
2022-12-17T06:33:57.325Z,7.15
2022-12-17T06:36:43.335Z,4.65
2022-12-17T06:39:28.905Z,5.43
2022-12-17T06:42:14.412Z,6.65
2022-12-17T06:44:59.995Z,6.32
2022-12-17T06:47:45.686Z,5.63
2022-12-17T06:50:31.433Z,5.85
2022-12-17T06:53:21.384Z,5.20
2022-12-17T06:56:06.996Z,6.00
2022-12-17T06:58:52.473Z,4.45
2022-12-17T07:01:38.009Z,5.85
2022-12-17T07:04:23.919Z,5.78
2022-12-17T07:07:09.257Z,5.65
2022-12-17T07:09:54.927Z,5.65
2022-12-17T07:12:42.775Z,6.60
2022-12-17T07:15:28.026Z,5.53
2022-12-17T07:18:20.453Z,5.28
2022-12-17T07:21:06.706Z,5.68
2022-12-17T07:23:52.485Z,6.53
2022-12-17T07:26:37.812Z,5.40
2022-12-17T07:29:23.449Z,5.22
2022-12-17T07:32:09.075Z,5.53
2022-12-17T07:34:54.610Z,6.45
2022-12-17T07:37:40.346Z,6.28
2022-12-17T07:40:26.548Z,5.57
2022-12-17T07:43:12.027Z,5.85
2022-12-17T07:45:57.875Z,6.75
2022-12-17T07:48:43.107Z,6.72
2022-12-17T07:51:28.569Z,8.18
2022-12-17T07:54:14.263Z,10.50
2022-12-17T07:56:59.585Z,11.80
2022-12-17T07:59:45.190Z,10.13
2022-12-17T08:02:30.968Z,8.13
2022-12-17T08:05:16.778Z,8.70
2022-12-17T08:08:02.308Z,7.43
2022-12-17T08:10:47.591Z,6.75
2022-12-17T08:13:33.031Z,6.85
2022-12-17T08:16:18.553Z,7.57
2022-12-17T08:19:03.997Z,7.63
2022-12-17T08:21:49.743Z,7.70
2022-12-17T08:24:35.383Z,7.63
2022-12-17T08:27:20.979Z,6.93
2022-12-17T08:30:06.340Z,5.88
2022-12-17T08:32:51.803Z,6.63
2022-12-17T08:35:37.072Z,6.95
2022-12-17T08:38:24.906Z,6.22
2022-12-17T08:41:10.246Z,5.85
2022-12-17T08:43:55.498Z,5.43
2022-12-17T08:46:41.049Z,7.63
2022-12-17T08:49:26.810Z,10.35
2022-12-17T08:52:12.524Z,11.50
2022-12-17T08:54:58.079Z,10.15
2022-12-17T08:57:44.000Z,7.72
2022-12-17T09:00:30.191Z,6.78
2022-12-17T09:03:20.925Z,10.05
2022-12-17T09:06:06.188Z,7.00
2022-12-17T09:08:51.381Z,11.57
2022-12-17T09:11:38.884Z,23.67
2022-12-17T09:14:24.327Z,19.75
2022-12-17T09:17:10.103Z,32.13
2022-12-17T09:19:55.432Z,19.23
2022-12-17T09:22:41.157Z,33.65
2022-12-17T09:25:27.263Z,44.38
2022-12-17T09:28:12.421Z,28.08
2022-12-17T09:30:58.358Z,42.38
2022-12-17T09:33:43.635Z,26.27
2022-12-17T09:36:28.950Z,26.73
2022-12-17T09:39:14.478Z,18.23
2022-12-17T09:42:03.077Z,21.65
2022-12-17T09:44:59.455Z,39.97
2022-12-17T09:47:59.148Z,38.08
2022-12-17T09:50:44.880Z,40.60
2022-12-17T09:53:42.962Z,27.95
2022-12-17T09:56:31.340Z,33.25
2022-12-17T09:59:17.024Z,18.40
2022-12-17T10:02:02.799Z,18.00
2022-12-17T10:04:58.566Z,13.68
2022-12-17T10:07:51.061Z,13.90
2022-12-17T10:10:49.895Z,12.63
2022-12-17T10:13:38.289Z,9.75
2022-12-17T10:16:46.524Z,7.03
2022-12-17T10:19:35.175Z,10.73
2022-12-17T10:22:32.057Z,6.95
2022-12-17T10:25:24.659Z,6.05
2022-12-17T10:28:09.882Z,6.85
2022-12-17T10:30:55.773Z,8.15
2022-12-17T10:33:41.587Z,10.32
2022-12-17T10:36:41.982Z,12.23
2022-12-17T10:39:34.620Z,11.50
2022-12-17T10:42:20.071Z,8.13
2022-12-17T10:45:25.527Z,12.02
2022-12-17T10:48:11.172Z,7.95
2022-12-17T10:51:00.569Z,14.93
2022-12-17T10:53:46.683Z,12.55
2022-12-17T10:56:45.146Z,21.45
2022-12-17T10:59:32.530Z,24.33
2022-12-17T11:02:29.529Z,29.33
2022-12-17T11:05:17.275Z,40.88
2022-12-17T11:08:03.390Z,23.73
2022-12-17T11:11:00.923Z,17.25
2022-12-17T11:14:00.359Z,17.20
2022-12-17T11:16:55.797Z,11.43
2022-12-17T11:20:01.882Z,13.50
2022-12-17T11:23:06.708Z,11.60
2022-12-17T11:26:04.413Z,9.18
2022-12-17T11:28:53.675Z,10.75
2022-12-17T11:32:02.143Z,13.00
2022-12-17T11:35:09.558Z,12.27
2022-12-17T11:38:20.930Z,17.58
2022-12-17T11:41:11.763Z,9.45
2022-12-17T11:44:12.564Z,9.27
2022-12-17T11:47:13.005Z,12.02
2022-12-17T11:50:15.597Z,14.15
2022-12-17T11:53:25.951Z,12.65
2022-12-17T11:56:19.907Z,17.17
2022-12-17T11:59:11.057Z,14.80
2022-12-17T12:02:08.635Z,17.85
2022-12-17T12:05:24.462Z,17.42
2022-12-17T12:08:21.065Z,14.43
2022-12-17T12:11:20.492Z,12.40
2022-12-17T12:14:12.616Z,16.75
2022-12-17T12:17:15.248Z,10.63
2022-12-17T12:20:42.215Z,10.32
2022-12-17T12:23:30.824Z,12.80
2022-12-17T12:26:41.332Z,12.55
2022-12-17T12:29:55.854Z,13.00
2022-12-17T12:32:48.044Z,13.38
2022-12-17T12:35:36.940Z,13.98
2022-12-17T12:38:22.650Z,24.42
2022-12-17T12:41:21.915Z,18.65
2022-12-17T12:44:17.212Z,16.63
2022-12-17T12:47:17.498Z,18.40
2022-12-17T12:50:13.351Z,26.70
2022-12-17T12:52:58.790Z,25.88
2022-12-17T12:55:57.938Z,20.65
2022-12-17T12:58:44.974Z,26.13
2022-12-17T13:01:30.796Z,17.60
2022-12-17T13:04:17.789Z,15.52
2022-12-17T13:06:55.178Z,17.60
2022-12-17T13:09:35.155Z,13.40
2022-12-17T13:12:05.012Z,12.77
2022-12-17T13:14:56.484Z,11.90
2022-12-17T13:17:23.209Z,12.20
2022-12-17T13:20:01.946Z,12.32
2022-12-17T13:22:33.716Z,10.52
2022-12-17T13:25:29.958Z,4.65
2022-12-17T13:27:56.751Z,12.88
2022-12-17T13:30:36.074Z,8.10
2022-12-17T13:33:30.772Z,7.32
2022-12-17T13:35:57.554Z,13.88
2022-12-17T13:38:42.908Z,10.85
2022-12-17T13:41:18.748Z,7.55
2022-12-17T13:43:47.258Z,7.25
2022-12-17T13:46:35.713Z,9.43
2022-12-17T13:49:05.136Z,8.32
2022-12-17T13:51:35.088Z,15.77
2022-12-17T13:54:04.229Z,7.38
2022-12-17T13:56:36.636Z,12.65
2022-12-17T13:59:09.279Z,7.50
2022-12-17T14:01:46.047Z,4.85
2022-12-17T14:04:21.561Z,4.13
2022-12-17T14:06:48.861Z,3.72
2022-12-17T14:09:18.475Z,5.32
2022-12-17T14:12:04.314Z,7.22
2022-12-17T14:14:33.355Z,9.52
2022-12-17T14:17:00.500Z,5.38
2022-12-17T14:19:28.155Z,3.63
2022-12-17T14:21:55.512Z,3.40
2022-12-17T14:24:27.076Z,2.47
2022-12-17T14:26:56.283Z,2.75
2022-12-17T14:29:31.472Z,2.58
2022-12-17T14:32:01.710Z,3.42
2022-12-17T14:34:30.018Z,4.35
2022-12-17T14:37:00.360Z,4.45
2022-12-17T14:39:30.076Z,6.30
2022-12-17T14:42:26.023Z,6.05
2022-12-17T14:45:07.214Z,7.20
2022-12-17T14:47:35.996Z,13.57
2022-12-17T14:50:25.230Z,14.25
2022-12-17T14:52:55.258Z,14.02
2022-12-17T14:55:29.136Z,7.07
2022-12-17T14:58:13.813Z,5.95
2022-12-17T15:00:52.983Z,12.60
2022-12-17T15:03:23.834Z,10.38
2022-12-17T15:05:57.147Z,16.60
2022-12-17T15:08:24.308Z,22.00
2022-12-17T15:10:52.401Z,10.40
2022-12-17T15:13:19.199Z,12.98
2022-12-17T15:15:46.216Z,15.77
2022-12-17T15:18:13.013Z,13.77
2022-12-17T15:20:39.888Z,11.65
2022-12-17T15:23:08.797Z,25.50
2022-12-17T15:25:41.802Z,15.32
2022-12-17T15:28:12.005Z,11.32
2022-12-17T15:30:40.225Z,13.07
2022-12-17T15:33:08.352Z,6.75
2022-12-17T15:35:35.508Z,12.00
2022-12-17T15:38:02.950Z,14.63
2022-12-17T15:40:29.854Z,12.93
2022-12-17T15:43:12.716Z,10.90
2022-12-17T15:45:40.170Z,11.43
2022-12-17T15:48:07.156Z,8.25
2022-12-17T15:50:34.381Z,7.93
2022-12-17T15:53:01.495Z,8.95
2022-12-17T15:55:28.535Z,7.28
2022-12-17T15:57:55.505Z,8.13
2022-12-17T16:00:22.680Z,9.40
2022-12-17T16:02:49.728Z,6.57
2022-12-17T16:05:17.050Z,5.75
2022-12-17T16:07:44.102Z,6.95
2022-12-17T16:10:12.783Z,7.60
2022-12-17T16:12:40.065Z,12.88
2022-12-17T16:15:08.238Z,15.00
2022-12-17T16:17:35.327Z,12.90
2022-12-17T16:20:02.497Z,17.45
2022-12-17T16:22:29.371Z,36.28
2022-12-17T16:24:56.216Z,45.58
2022-12-17T16:27:23.542Z,20.02
2022-12-17T16:29:50.393Z,18.50
2022-12-17T16:32:17.737Z,8.90
2022-12-17T16:34:44.827Z,8.80
2022-12-17T16:37:11.840Z,10.60
2022-12-17T16:39:38.698Z,9.98
2022-12-17T16:42:05.636Z,10.43
2022-12-17T16:44:32.490Z,8.82
2022-12-17T16:46:59.767Z,20.83
2022-12-17T16:49:26.923Z,9.82
2022-12-17T16:51:55.142Z,9.30
2022-12-17T16:54:26.516Z,14.05
2022-12-17T16:56:54.284Z,12.27
2022-12-17T16:59:22.138Z,9.63
2022-12-17T17:01:50.210Z,11.60
2022-12-17T17:04:18.894Z,9.38
2022-12-17T17:06:56.133Z,10.90
2022-12-17T17:09:24.139Z,10.85
2022-12-17T17:11:52.094Z,11.63
2022-12-17T17:14:20.087Z,19.10
2022-12-17T17:16:46.992Z,10.90
2022-12-17T17:19:14.062Z,15.18
2022-12-17T17:21:42.814Z,12.88
2022-12-17T17:24:20.956Z,13.27
2022-12-17T17:26:49.359Z,13.60
2022-12-17T17:29:16.366Z,11.75
2022-12-17T17:34:30.069Z,12.38
2022-12-17T17:36:56.932Z,9.45
2022-12-17T17:39:24.882Z,13.18
2022-12-17T17:41:52.059Z,12.98
2022-12-17T17:44:19.090Z,16.77
2022-12-17T17:46:46.166Z,19.17
2022-12-17T17:49:13.078Z,20.33
2022-12-17T17:54:28.865Z,12.10
2022-12-17T17:56:55.826Z,10.48
2022-12-17T17:59:30.921Z,11.43
2022-12-17T18:02:00.708Z,16.67
2022-12-17T18:04:28.200Z,11.50
2022-12-17T18:09:41.828Z,10.68
2022-12-17T18:12:27.468Z,9.02
2022-12-17T18:17:41.328Z,9.85
2022-12-17T18:20:09.780Z,8.38
2022-12-17T18:22:37.201Z,9.23
2022-12-17T18:25:05.026Z,9.77
2022-12-17T18:27:31.896Z,9.52
2022-12-17T18:29:58.733Z,10.90
2022-12-17T18:32:25.795Z,10.40
2022-12-17T18:34:52.689Z,8.88
2022-12-17T18:37:19.603Z,8.82
2022-12-17T18:39:46.524Z,7.70
2022-12-17T18:42:32.130Z,8.05
2022-12-17T18:44:58.940Z,8.45
2022-12-17T18:47:26.337Z,9.32
2022-12-17T18:49:53.201Z,8.27
2022-12-17T18:52:20.081Z,9.27
2022-12-17T18:54:46.943Z,10.48
2022-12-17T18:57:13.822Z,10.48
2022-12-17T18:59:41.187Z,12.15
2022-12-17T19:02:12.904Z,8.65
2022-12-17T19:04:40.183Z,8.57
2022-12-17T19:07:07.123Z,8.13
2022-12-17T19:09:37.084Z,8.43
2022-12-17T19:12:06.439Z,7.25
2022-12-17T19:14:33.585Z,7.63
2022-12-17T19:17:00.791Z,6.70
2022-12-17T19:19:27.805Z,9.80
2022-12-17T19:21:55.864Z,9.20
2022-12-17T19:24:23.520Z,8.98
2022-12-17T19:26:51.150Z,8.63
2022-12-17T19:29:19.558Z,8.68
2022-12-17T19:31:46.517Z,9.48
2022-12-17T19:34:15.382Z,9.05
2022-12-17T19:36:43.071Z,10.15
2022-12-17T19:39:14.421Z,8.75
2022-12-17T19:41:41.339Z,8.85
2022-12-17T19:44:11.836Z,8.95
2022-12-17T19:46:38.705Z,9.18
2022-12-17T19:49:05.792Z,8.07
2022-12-17T19:51:33.233Z,7.88
2022-12-17T19:54:06.459Z,8.88
2022-12-17T19:56:35.414Z,7.47
2022-12-17T19:59:07.045Z,9.13
2022-12-17T20:01:37.091Z,9.23
2022-12-17T20:04:05.245Z,8.43
2022-12-17T20:06:34.201Z,9.18
2022-12-17T20:09:03.061Z,9.77
2022-12-17T20:11:33.003Z,11.48
2022-12-17T20:14:23.998Z,10.63
2022-12-17T20:16:54.081Z,9.13
2022-12-17T20:19:25.901Z,8.45
2022-12-17T20:21:53.784Z,7.27
2022-12-17T20:24:23.562Z,9.40
2022-12-17T20:26:54.976Z,9.85
2022-12-17T20:29:24.250Z,11.63
2022-12-17T20:31:52.668Z,12.60
2022-12-17T20:34:20.511Z,10.80
2022-12-17T20:36:49.005Z,10.43
2022-12-17T20:39:16.347Z,10.00
2022-12-17T20:41:44.366Z,8.75
2022-12-17T20:44:14.320Z,8.93
2022-12-17T20:46:41.445Z,8.07
2022-12-17T20:49:08.778Z,9.82
2022-12-17T20:51:36.127Z,9.65
2022-12-17T20:54:03.591Z,9.32
2022-12-17T20:56:33.323Z,9.05
2022-12-17T20:59:02.857Z,10.13
2022-12-17T21:01:31.860Z,11.07
2022-12-17T21:04:00.276Z,10.50
2022-12-17T21:06:34.484Z,9.35
2022-12-17T21:09:01.839Z,9.93
2022-12-17T21:11:31.175Z,9.27
2022-12-17T21:13:58.752Z,9.80
2022-12-17T21:16:29.728Z,9.27
2022-12-17T21:18:57.740Z,8.13
2022-12-17T21:21:28.292Z,8.75
2022-12-17T21:23:55.891Z,7.47
2022-12-17T21:26:25.104Z,8.20
2022-12-17T21:28:53.657Z,8.60
2022-12-17T21:31:26.222Z,7.55
2022-12-17T21:33:56.794Z,8.50
2022-12-17T21:36:24.495Z,8.70
2022-12-17T21:38:52.275Z,8.23
2022-12-17T21:41:31.683Z,8.77
2022-12-17T21:44:01.553Z,8.25
2022-12-17T21:46:29.278Z,9.45
2022-12-17T21:49:00.598Z,8.20
2022-12-17T21:51:29.138Z,8.55
2022-12-17T21:53:58.137Z,8.40
2022-12-17T21:56:25.433Z,9.85
2022-12-17T21:59:00.189Z,9.55
2022-12-17T22:01:30.101Z,8.48
2022-12-17T22:03:59.537Z,9.50
2022-12-17T22:06:33.435Z,8.80
2022-12-17T22:09:05.660Z,10.43
2022-12-17T22:11:36.018Z,9.70
2022-12-17T22:14:07.797Z,10.30
2022-12-17T22:19:06.004Z,8.50
2022-12-17T22:21:36.720Z,8.45
2022-12-17T22:24:04.362Z,8.77
2022-12-17T22:26:31.236Z,8.88
2022-12-17T22:28:58.130Z,9.32
2022-12-17T22:31:43.503Z,8.43
2022-12-17T22:34:54.362Z,9.38
2022-12-17T22:37:55.991Z,8.95
2022-12-17T22:44:33.363Z,8.55
2022-12-17T22:44:43.223Z,9.50
2022-12-17T22:45:42.339Z,9.23
2022-12-17T22:48:10.609Z,8.40
2022-12-17T22:50:44.267Z,9.27
2022-12-17T22:53:25.549Z,8.80
2022-12-17T22:55:52.730Z,9.52
2022-12-17T22:58:20.583Z,9.48
2022-12-17T23:00:47.433Z,8.15
2022-12-17T23:03:14.410Z,7.78
2022-12-17T23:05:41.302Z,8.05
2022-12-17T23:08:08.138Z,8.13
2022-12-17T23:10:35.211Z,8.00
2022-12-17T23:13:02.101Z,8.57
2022-12-17T23:15:39.067Z,7.45
2022-12-17T23:18:07.086Z,8.23
2022-12-17T23:20:40.252Z,9.68
2022-12-17T23:23:07.040Z,8.20
2022-12-17T23:25:34.152Z,9.77
2022-12-17T23:28:00.946Z,8.85
2022-12-17T23:30:27.886Z,8.32
2022-12-17T23:32:54.845Z,9.32
2022-12-17T23:35:21.687Z,9.85
2022-12-17T23:37:49.629Z,8.77
2022-12-17T23:40:16.677Z,12.07
2022-12-17T23:42:43.524Z,12.32
2022-12-17T23:45:11.995Z,13.18
2022-12-17T23:47:39.777Z,18.02
2022-12-17T23:50:07.974Z,13.52
2022-12-17T23:52:34.971Z,9.15
2022-12-17T23:55:01.812Z,9.13
2022-12-17T23:57:28.638Z,8.43
2022-12-17T23:59:55.432Z,8.43
